createdAt,value
2019-05-10T00:00:08.983Z,18.37
2019-05-10T00:01:32.117Z,17.85
2019-05-10T00:02:54.448Z,15.43
2019-05-10T00:04:17.920Z,17.60
2019-05-10T00:05:40.918Z,15.97
2019-05-10T00:07:02.946Z,16.73
2019-05-10T00:08:25.728Z,17.47
2019-05-10T00:09:29.105Z,20.90
2019-05-10T00:10:32.595Z,19.13
2019-05-10T00:11:56.488Z,22.02
2019-05-10T00:13:08.878Z,19.23
2019-05-10T00:14:32.892Z,17.70
2019-05-10T00:15:37.282Z,22.60
2019-05-10T00:16:41.842Z,18.03
2019-05-10T00:17:47.386Z,22.33
2019-05-10T00:18:51.938Z,17.67
2019-05-10T00:19:56.426Z,17.87
2019-05-10T00:21:00.962Z,18.93
2019-05-10T00:22:05.417Z,18.67
2019-05-10T00:23:10.013Z,21.68
2019-05-10T00:24:14.541Z,20.27
2019-05-10T00:25:20.192Z,24.47
2019-05-10T00:26:24.535Z,20.95
2019-05-10T00:27:29.135Z,22.85
2019-05-10T00:28:33.455Z,19.80
2019-05-10T00:29:37.992Z,18.90
2019-05-10T00:30:42.363Z,17.73
2019-05-10T00:31:47.020Z,18.50
2019-05-10T00:32:51.577Z,23.63
2019-05-10T00:33:56.230Z,21.67
2019-05-10T00:35:00.780Z,18.63
2019-05-10T00:36:05.473Z,21.55
2019-05-10T00:37:09.876Z,27.33
2019-05-10T00:38:14.559Z,23.33
2019-05-10T00:39:19.618Z,18.83
2019-05-10T00:40:24.406Z,22.00
2019-05-10T00:41:28.843Z,19.67
2019-05-10T00:42:33.344Z,21.17
2019-05-10T00:43:37.754Z,19.45
2019-05-10T00:44:42.473Z,23.67
2019-05-10T00:45:46.905Z,21.37
2019-05-10T00:46:51.458Z,19.90
2019-05-10T00:47:55.950Z,21.53
2019-05-10T00:49:00.563Z,19.83
2019-05-10T00:50:06.157Z,19.57
2019-05-10T00:51:10.832Z,18.90
2019-05-10T00:52:15.344Z,21.17
2019-05-10T00:53:19.896Z,22.13
2019-05-10T00:54:24.325Z,19.33
2019-05-10T00:55:28.973Z,19.75
2019-05-10T00:56:33.373Z,18.47
2019-05-10T00:57:37.859Z,21.87
2019-05-10T00:58:42.202Z,18.33
2019-05-10T00:59:47.274Z,18.50
2019-05-10T01:00:51.705Z,21.63
2019-05-10T01:01:56.581Z,22.37
2019-05-10T01:03:00.937Z,19.33
2019-05-10T01:04:05.557Z,17.57
2019-05-10T01:05:09.916Z,21.53
2019-05-10T01:06:14.518Z,21.07
2019-05-10T01:07:20.038Z,21.67
2019-05-10T01:08:24.583Z,21.90
2019-05-10T01:09:28.977Z,19.10
2019-05-10T01:10:33.755Z,20.90
2019-05-10T01:11:38.693Z,18.90
2019-05-10T01:12:43.264Z,17.77
2019-05-10T01:13:47.800Z,20.23
2019-05-10T01:14:52.453Z,19.23
2019-05-10T01:15:56.951Z,18.50
2019-05-10T01:17:01.475Z,18.40
2019-05-10T01:18:05.950Z,18.23
2019-05-10T01:19:12.293Z,20.83
2019-05-10T01:20:18.513Z,17.63
2019-05-10T01:21:23.121Z,18.20
2019-05-10T01:22:27.697Z,19.60
2019-05-10T01:23:33.372Z,23.43
2019-05-10T01:24:37.809Z,18.93
2019-05-10T01:25:44.187Z,19.40
2019-05-10T01:26:48.550Z,19.47
2019-05-10T01:27:53.174Z,21.57
2019-05-10T01:28:57.702Z,15.57
2019-05-10T01:30:02.260Z,20.87
2019-05-10T01:31:06.771Z,17.90
2019-05-10T01:32:11.503Z,20.17
2019-05-10T01:33:16.050Z,17.97
2019-05-10T01:34:20.723Z,18.10
2019-05-10T01:35:25.105Z,18.27
2019-05-10T01:36:29.643Z,17.87
2019-05-10T01:37:35.577Z,20.60
2019-05-10T01:38:40.144Z,19.53
2019-05-10T01:39:46.050Z,15.23
2019-05-10T01:40:50.594Z,14.20
2019-05-10T01:41:55.192Z,17.47
2019-05-10T01:42:59.764Z,17.43
2019-05-10T01:44:04.133Z,16.03
2019-05-10T01:45:09.418Z,20.53
2019-05-10T01:46:13.843Z,19.03
2019-05-10T01:47:18.357Z,15.13
2019-05-10T01:48:22.829Z,13.87
2019-05-10T01:49:27.317Z,20.17
2019-05-10T01:50:31.717Z,19.37
2019-05-10T01:51:36.287Z,16.00
2019-05-10T01:52:40.760Z,17.50
2019-05-10T01:53:45.558Z,17.97
2019-05-10T01:54:49.891Z,16.87
2019-05-10T01:55:55.616Z,18.00
2019-05-10T01:56:59.897Z,17.90
2019-05-10T01:58:04.488Z,18.57
2019-05-10T01:59:08.905Z,16.20
2019-05-10T02:00:14.060Z,17.20
2019-05-10T02:01:18.451Z,15.63
2019-05-10T02:02:23.184Z,14.90
2019-05-10T02:04:35.232Z,10.97
2019-05-10T02:05:39.958Z,19.30
2019-05-10T02:06:44.267Z,14.33
2019-05-10T02:07:48.851Z,15.70
2019-05-10T02:08:53.234Z,16.47
2019-05-10T02:09:57.917Z,13.40
2019-05-10T02:11:02.789Z,15.53
2019-05-10T02:12:07.342Z,12.77
2019-05-10T02:13:11.724Z,12.27
2019-05-10T02:14:16.334Z,15.57
2019-05-10T02:15:21.859Z,15.43
2019-05-10T02:16:26.426Z,14.10
2019-05-10T02:17:30.821Z,15.00
2019-05-10T02:18:35.334Z,15.10
2019-05-10T02:19:39.754Z,13.23
2019-05-10T02:20:44.456Z,15.57
2019-05-10T02:21:50.027Z,12.90
2019-05-10T02:22:55.750Z,11.63
2019-05-10T02:24:00.179Z,12.97
2019-05-10T02:25:05.078Z,12.37
2019-05-10T02:26:10.156Z,15.13
2019-05-10T02:27:14.827Z,14.20
2019-05-10T02:28:19.239Z,13.57
2019-05-10T02:29:25.660Z,12.17
2019-05-10T02:30:30.074Z,13.93
2019-05-10T02:31:34.803Z,15.37
2019-05-10T02:32:39.388Z,15.73
2019-05-10T02:33:44.210Z,15.40
2019-05-10T02:34:49.025Z,14.57
2019-05-10T02:35:53.653Z,19.00
2019-05-10T02:36:57.985Z,13.97
2019-05-10T02:38:02.798Z,13.13
2019-05-10T02:39:08.433Z,16.93
2019-05-10T02:40:13.443Z,17.77
2019-05-10T02:41:18.009Z,15.10
2019-05-10T02:42:22.968Z,15.07
2019-05-10T02:43:27.486Z,16.53
2019-05-10T02:44:32.109Z,16.13
2019-05-10T02:45:36.491Z,14.87
2019-05-10T02:46:41.118Z,13.03
2019-05-10T02:47:45.566Z,13.53
2019-05-10T02:48:50.055Z,13.43
2019-05-10T02:49:54.478Z,14.10
2019-05-10T02:50:59.010Z,12.67
2019-05-10T02:52:03.578Z,12.40
2019-05-10T02:53:08.420Z,17.27
2019-05-10T02:54:12.808Z,14.03
2019-05-10T02:55:17.413Z,15.17
2019-05-10T02:56:30.411Z,11.10
2019-05-10T02:57:28.869Z,14.30
2019-05-10T02:58:34.033Z,13.23
2019-05-10T02:59:39.080Z,15.93
2019-05-10T03:00:46.911Z,12.27
2019-05-10T03:01:54.385Z,13.70
2019-05-10T03:02:59.686Z,13.43
2019-05-10T03:04:04.188Z,12.57
2019-05-10T03:05:09.425Z,14.80
2019-05-10T03:06:17.598Z,12.53
2019-05-10T03:07:25.093Z,11.80
2019-05-10T03:08:34.408Z,11.60
2019-05-10T03:09:38.815Z,16.83
2019-05-10T03:10:58.042Z,11.80
2019-05-10T03:12:26.904Z,11.33
2019-05-10T03:13:32.419Z,13.17
2019-05-10T03:14:41.745Z,14.73
2019-05-10T03:15:48.656Z,13.57
2019-05-10T03:16:55.040Z,13.03
2019-05-10T03:18:02.390Z,11.83
2019-05-10T03:19:09.017Z,15.37
2019-05-10T03:20:14.964Z,14.90
2019-05-10T03:21:20.160Z,14.30
2019-05-10T03:22:27.022Z,14.40
2019-05-10T03:23:32.292Z,14.87
2019-05-10T03:24:38.211Z,14.90
2019-05-10T03:25:46.569Z,14.83
2019-05-10T03:26:52.472Z,13.67
2019-05-10T03:27:56.797Z,11.97
2019-05-10T03:29:02.582Z,12.03
2019-05-10T03:30:07.537Z,15.53
2019-05-10T03:31:13.908Z,16.70
2019-05-10T03:32:18.346Z,13.60
2019-05-10T03:33:24.085Z,11.80
2019-05-10T03:34:28.621Z,13.87
2019-05-10T03:35:33.830Z,12.07
2019-05-10T03:36:39.838Z,16.17
2019-05-10T03:38:03.405Z,16.13
2019-05-10T03:39:07.721Z,16.10
2019-05-10T03:40:13.175Z,13.27
2019-05-10T03:41:17.764Z,12.33
2019-05-10T03:42:22.372Z,17.03
2019-05-10T03:43:26.759Z,14.40
2019-05-10T03:44:31.353Z,15.80
2019-05-10T03:45:35.704Z,15.63
2019-05-10T03:46:40.274Z,13.27
2019-05-10T03:47:45.071Z,15.70
2019-05-10T03:48:49.608Z,12.97
2019-05-10T03:49:54.210Z,14.83
2019-05-10T03:50:58.853Z,14.70
2019-05-10T03:52:03.269Z,14.80
2019-05-10T03:53:09.102Z,16.20
2019-05-10T03:54:14.058Z,11.63
2019-05-10T03:55:18.644Z,15.03
2019-05-10T03:56:23.075Z,14.10
2019-05-10T03:57:27.625Z,18.03
2019-05-10T03:58:31.933Z,16.97
2019-05-10T03:59:36.484Z,12.70
2019-05-10T04:00:40.958Z,16.47
2019-05-10T04:01:46.649Z,14.03
2019-05-10T04:02:51.361Z,17.83
2019-05-10T04:03:56.951Z,15.20
2019-05-10T04:05:01.301Z,17.43
2019-05-10T04:06:05.967Z,17.33
2019-05-10T04:07:10.559Z,12.50
2019-05-10T04:08:16.433Z,16.93
2019-05-10T04:09:20.769Z,13.10
2019-05-10T04:10:25.471Z,13.03
2019-05-10T04:11:30.139Z,14.67
2019-05-10T04:12:34.969Z,12.27
2019-05-10T04:13:39.380Z,13.93
2019-05-10T04:14:44.106Z,13.73
2019-05-10T04:15:48.627Z,13.97
2019-05-10T04:16:53.479Z,15.50
2019-05-10T04:18:01.072Z,15.33
2019-05-10T04:19:05.763Z,12.50
2019-05-10T04:20:10.619Z,12.27
2019-05-10T04:21:15.479Z,14.83
2019-05-10T04:22:19.935Z,13.60
2019-05-10T04:23:24.525Z,14.17
2019-05-10T04:24:30.018Z,14.13
2019-05-10T04:25:34.633Z,16.70
2019-05-10T04:26:38.955Z,13.50
2019-05-10T04:27:43.584Z,16.27
2019-05-10T04:28:48.104Z,14.93
2019-05-10T04:29:53.927Z,18.33
2019-05-10T04:30:58.466Z,14.07
2019-05-10T04:32:03.091Z,15.23
2019-05-10T04:33:07.497Z,16.07
2019-05-10T04:34:12.377Z,13.30
2019-05-10T04:35:18.063Z,15.03
2019-05-10T04:36:22.636Z,14.30
2019-05-10T04:37:26.982Z,13.87
2019-05-10T04:38:31.701Z,14.67
2019-05-10T04:39:36.274Z,14.03
2019-05-10T04:40:40.871Z,14.63
2019-05-10T04:41:45.375Z,15.40
2019-05-10T04:42:50.022Z,14.57
2019-05-10T04:43:54.412Z,13.83
2019-05-10T04:44:59.137Z,14.70
2019-05-10T04:46:03.666Z,14.40
2019-05-10T04:47:08.293Z,15.97
2019-05-10T04:48:13.348Z,14.70
2019-05-10T04:49:19.369Z,15.13
2019-05-10T04:50:23.786Z,14.50
2019-05-10T04:51:28.387Z,15.00
2019-05-10T04:52:32.786Z,18.30
2019-05-10T04:53:37.336Z,14.90
2019-05-10T04:54:41.891Z,14.05
2019-05-10T04:55:46.746Z,17.27
2019-05-10T04:56:51.106Z,15.47
2019-05-10T04:57:55.674Z,16.87
2019-05-10T04:59:01.142Z,17.07
2019-05-10T05:00:07.858Z,17.13
2019-05-10T05:01:13.314Z,14.37
2019-05-10T05:02:22.259Z,17.40
2019-05-10T05:03:26.924Z,17.00
2019-05-10T05:04:31.513Z,16.37
2019-05-10T05:05:35.839Z,16.95
2019-05-10T05:06:40.426Z,13.85
2019-05-10T05:07:44.864Z,16.48
2019-05-10T05:08:49.493Z,14.45
2019-05-10T05:09:53.936Z,17.63
2019-05-10T05:10:58.528Z,18.00
2019-05-10T05:12:03.003Z,20.37
2019-05-10T05:13:07.621Z,18.00
2019-05-10T05:14:13.878Z,17.03
2019-05-10T05:15:18.442Z,15.63
2019-05-10T05:16:22.768Z,16.90
2019-05-10T05:17:27.279Z,13.83
2019-05-10T05:18:31.612Z,18.67
2019-05-10T05:19:36.198Z,15.58
2019-05-10T05:20:40.596Z,18.57
2019-05-10T05:21:45.210Z,17.62
2019-05-10T05:22:49.728Z,14.90
2019-05-10T05:23:54.282Z,17.15
2019-05-10T05:25:01.148Z,15.57
2019-05-10T05:26:05.599Z,16.90
2019-05-10T05:27:10.202Z,15.98
2019-05-10T05:28:18.306Z,18.20
2019-05-10T05:29:21.133Z,16.82
2019-05-10T05:30:26.831Z,14.53
2019-05-10T05:31:31.520Z,16.93
2019-05-10T05:32:38.585Z,16.40
2019-05-10T05:33:42.505Z,16.93
2019-05-10T05:34:47.008Z,15.97
2019-05-10T05:35:51.619Z,17.40
2019-05-10T05:36:56.239Z,18.17
2019-05-10T05:38:00.783Z,15.43
2019-05-10T05:39:06.960Z,16.37
2019-05-10T05:40:11.962Z,14.73
2019-05-10T05:41:16.670Z,17.35
2019-05-10T05:42:22.298Z,17.17
2019-05-10T05:43:27.754Z,15.38
2019-05-10T05:44:33.806Z,15.70
2019-05-10T05:45:38.598Z,15.20
2019-05-10T05:46:43.287Z,15.63
2019-05-10T05:47:52.722Z,15.05
2019-05-10T05:48:57.279Z,16.57
2019-05-10T05:50:02.023Z,15.85
2019-05-10T05:51:07.823Z,15.80
2019-05-10T05:52:12.785Z,13.80
2019-05-10T05:53:22.234Z,15.45
2019-05-10T05:54:24.527Z,15.40
2019-05-10T05:55:30.584Z,12.58
2019-05-10T05:56:35.520Z,15.50
2019-05-10T05:57:40.091Z,13.58
2019-05-10T05:58:46.968Z,12.10
2019-05-10T05:59:51.303Z,13.32
2019-05-10T06:00:55.914Z,13.62
2019-05-10T06:02:07.257Z,15.03
2019-05-10T06:03:06.917Z,14.30
2019-05-10T06:04:12.816Z,11.70
2019-05-10T06:05:32.771Z,12.40
2019-05-10T06:06:25.002Z,12.63
2019-05-10T06:07:31.095Z,12.03
2019-05-10T06:08:37.661Z,14.38
2019-05-10T06:09:42.280Z,14.73
2019-05-10T06:10:56.421Z,14.00
2019-05-10T06:11:53.087Z,16.67
2019-05-10T06:12:58.037Z,16.70
2019-05-10T06:14:09.998Z,11.88
2019-05-10T06:15:09.002Z,14.30
2019-05-10T06:16:14.841Z,11.45
2019-05-10T06:17:23.815Z,14.17
2019-05-10T06:18:26.000Z,12.47
2019-05-10T06:19:30.760Z,15.45
2019-05-10T06:20:38.155Z,13.20
2019-05-10T06:21:42.989Z,13.22
2019-05-10T06:23:05.057Z,13.68
2019-05-10T06:23:53.881Z,13.70
2019-05-10T06:24:58.455Z,15.43
2019-05-10T06:26:02.973Z,11.08
2019-05-10T06:27:07.730Z,11.25
2019-05-10T06:28:26.223Z,12.80
2019-05-10T06:29:19.913Z,13.08
2019-05-10T06:30:24.766Z,11.67
2019-05-10T06:31:29.401Z,14.55
2019-05-10T06:32:35.919Z,13.50
2019-05-10T06:33:45.154Z,13.13
2019-05-10T06:34:46.893Z,12.53
2019-05-10T06:35:51.684Z,13.15
2019-05-10T06:36:56.183Z,12.85
2019-05-10T06:38:00.824Z,11.80
2019-05-10T06:39:08.179Z,12.90
2019-05-10T06:40:13.354Z,12.63
2019-05-10T06:41:19.254Z,12.60
2019-05-10T06:42:28.942Z,11.63
2019-05-10T06:43:30.583Z,11.68
2019-05-10T06:44:35.181Z,11.00
2019-05-10T06:45:39.819Z,12.00
2019-05-10T06:46:44.380Z,12.95
2019-05-10T06:47:49.701Z,12.43
2019-05-10T06:48:55.332Z,11.65
2019-05-10T06:50:00.680Z,11.80
2019-05-10T06:51:09.744Z,10.13
2019-05-10T06:52:11.990Z,10.57
2019-05-10T06:53:16.675Z,9.60
2019-05-10T06:54:21.321Z,10.80
2019-05-10T06:55:25.908Z,10.25
2019-05-10T06:56:30.984Z,11.20
2019-05-10T06:57:35.549Z,10.68
2019-05-10T06:58:40.281Z,11.20
2019-05-10T06:59:45.075Z,11.17
2019-05-10T07:00:49.724Z,10.15
2019-05-10T07:01:54.400Z,11.43
2019-05-10T07:02:58.946Z,10.08
2019-05-10T07:04:03.469Z,10.70
2019-05-10T07:05:08.221Z,11.97
2019-05-10T07:06:14.734Z,10.90
2019-05-10T07:07:42.583Z,9.63
2019-05-10T07:08:27.443Z,8.20
2019-05-10T07:10:00.040Z,9.35
2019-05-10T07:10:38.203Z,9.80
2019-05-10T07:11:43.810Z,7.50
2019-05-10T07:12:48.527Z,7.37
2019-05-10T07:13:53.340Z,8.00
2019-05-10T07:15:03.543Z,7.47
2019-05-10T07:16:04.495Z,8.43
2019-05-10T07:17:09.014Z,5.95
2019-05-10T07:18:16.839Z,5.78
2019-05-10T07:19:20.226Z,5.08
2019-05-10T07:20:29.498Z,4.30
2019-05-10T07:21:31.270Z,4.70
2019-05-10T07:22:35.876Z,6.42
2019-05-10T07:23:44.735Z,5.10
2019-05-10T07:24:46.748Z,6.12
2019-05-10T07:25:51.348Z,4.45
2019-05-10T07:26:56.504Z,4.42
2019-05-10T07:28:03.450Z,6.67
2019-05-10T07:29:08.032Z,6.42
2019-05-10T07:30:30.075Z,11.00
2019-05-10T07:31:34.750Z,5.40
2019-05-10T07:32:39.300Z,5.55
2019-05-10T07:33:44.324Z,5.22
2019-05-10T07:34:58.292Z,8.03
2019-05-10T07:35:55.193Z,5.42
2019-05-10T07:37:01.852Z,5.17
2019-05-10T07:38:06.220Z,4.92
2019-05-10T07:39:11.140Z,4.92
2019-05-10T07:40:16.115Z,4.75
2019-05-10T07:41:26.577Z,3.40
2019-05-10T07:42:26.958Z,4.45
2019-05-10T07:43:31.461Z,5.45
2019-05-10T07:44:36.038Z,3.60
2019-05-10T07:45:40.533Z,3.22
2019-05-10T07:46:46.426Z,5.20
2019-05-10T07:47:51.324Z,3.95
2019-05-10T07:48:55.925Z,2.87
2019-05-10T07:50:03.938Z,3.83
2019-05-10T07:51:07.233Z,2.87
2019-05-10T07:52:12.137Z,4.53
2019-05-10T07:53:22.791Z,5.83
2019-05-10T07:54:25.605Z,3.00
2019-05-10T07:55:30.254Z,4.70
2019-05-10T07:56:39.103Z,3.47
2019-05-10T07:57:43.154Z,5.75
2019-05-10T07:58:47.675Z,4.58
2019-05-10T07:59:52.305Z,3.22
2019-05-10T08:00:57.169Z,4.95
2019-05-10T08:02:06.135Z,2.83
2019-05-10T08:03:16.144Z,4.37
2019-05-10T08:04:19.733Z,3.45
2019-05-10T08:05:24.004Z,3.42
2019-05-10T08:06:33.870Z,3.65
2019-05-10T08:07:34.895Z,4.53
2019-05-10T08:08:39.508Z,4.50
2019-05-10T08:09:46.751Z,4.05
2019-05-10T08:10:53.709Z,3.72
2019-05-10T08:12:03.287Z,3.05
2019-05-10T08:13:04.653Z,5.25
2019-05-10T08:14:11.257Z,5.05
2019-05-10T08:15:19.544Z,3.22
2019-05-10T08:16:24.360Z,6.47
2019-05-10T08:17:30.265Z,3.67
2019-05-10T08:18:35.064Z,3.58
2019-05-10T08:19:39.757Z,4.65
2019-05-10T08:20:53.492Z,4.67
2019-05-10T08:21:56.462Z,3.15
2019-05-10T08:22:57.069Z,4.30
2019-05-10T08:24:07.177Z,3.70
2019-05-10T08:25:08.116Z,4.35
2019-05-10T08:26:20.349Z,6.42
2019-05-10T08:27:20.211Z,4.67
2019-05-10T08:28:28.101Z,5.92
2019-05-10T08:29:33.067Z,7.37
2019-05-10T08:30:51.741Z,5.42
2019-05-10T08:31:52.859Z,4.65
2019-05-10T08:32:55.395Z,4.45
2019-05-10T08:34:02.277Z,3.08
2019-05-10T08:35:16.351Z,3.85
2019-05-10T08:36:16.075Z,3.33
2019-05-10T08:37:30.448Z,4.28
2019-05-10T08:38:27.434Z,4.60
2019-05-10T08:39:34.740Z,5.80
2019-05-10T08:40:38.789Z,4.15
2019-05-10T08:41:45.801Z,4.07
2019-05-10T08:43:03.168Z,3.90
2019-05-10T08:43:56.889Z,5.35
2019-05-10T08:45:05.358Z,3.10
2019-05-10T08:46:08.133Z,3.90
2019-05-10T08:47:22.435Z,5.30
2019-05-10T08:48:23.340Z,5.50
2019-05-10T08:49:35.715Z,5.22
2019-05-10T08:50:49.529Z,5.65
2019-05-10T08:51:47.732Z,3.22
2019-05-10T08:52:49.144Z,3.80
2019-05-10T08:53:58.232Z,4.00
2019-05-10T08:55:05.707Z,3.20
2019-05-10T08:56:13.913Z,3.10
2019-05-10T08:57:19.676Z,4.58
2019-05-10T08:58:31.433Z,3.02
2019-05-10T08:59:33.918Z,3.45
2019-05-10T09:00:53.360Z,4.85
2019-05-10T09:01:50.697Z,5.00
2019-05-10T09:02:52.828Z,4.42
2019-05-10T09:04:00.794Z,5.53
2019-05-10T09:05:04.177Z,6.22
2019-05-10T09:06:11.509Z,6.75
2019-05-10T09:07:18.134Z,4.10
2019-05-10T09:08:27.801Z,8.05
2019-05-10T09:09:35.880Z,8.65
2019-05-10T09:10:38.143Z,8.85
2019-05-10T09:11:44.442Z,7.95
2019-05-10T09:12:54.244Z,7.92
2019-05-10T09:13:57.795Z,4.10
2019-05-10T09:15:09.447Z,4.05
2019-05-10T09:16:13.556Z,5.45
2019-05-10T09:17:23.782Z,7.53
2019-05-10T09:18:27.311Z,4.75
2019-05-10T09:19:37.324Z,7.05
2019-05-10T09:20:42.320Z,5.67
2019-05-10T09:21:50.012Z,4.33
2019-05-10T09:22:55.046Z,3.27
2019-05-10T09:24:03.386Z,2.00
2019-05-10T09:25:07.533Z,3.22
2019-05-10T09:26:16.380Z,5.20
2019-05-10T09:27:22.446Z,5.12
2019-05-10T09:28:29.277Z,2.40
2019-05-10T09:29:37.273Z,3.83
2019-05-10T09:30:56.396Z,5.80
2019-05-10T09:31:51.191Z,2.87
2019-05-10T09:33:01.004Z,3.47
2019-05-10T09:34:03.809Z,2.87
2019-05-10T09:35:14.402Z,4.00
2019-05-10T09:36:23.042Z,4.20
2019-05-10T09:37:28.054Z,7.90
2019-05-10T09:38:37.690Z,9.25
2019-05-10T09:39:42.397Z,5.17
2019-05-10T09:40:52.960Z,4.03
2019-05-10T09:41:53.408Z,3.12
2019-05-10T09:42:59.419Z,3.52
2019-05-10T09:44:05.976Z,4.40
2019-05-10T09:45:12.810Z,7.95
2019-05-10T09:46:18.890Z,4.83
2019-05-10T09:47:56.470Z,3.40
2019-05-10T09:49:33.068Z,4.80
2019-05-10T09:50:42.108Z,3.77
2019-05-10T09:51:42.658Z,4.12
2019-05-10T09:52:47.181Z,2.92
2019-05-10T09:53:51.757Z,4.58
2019-05-10T09:54:56.952Z,8.90
2019-05-10T09:56:03.321Z,3.12
2019-05-10T09:57:08.363Z,4.45
2019-05-10T09:58:13.537Z,5.42
2019-05-10T09:59:19.351Z,2.95
2019-05-10T10:00:33.417Z,3.27
2019-05-10T10:01:38.029Z,2.75
2019-05-10T10:02:48.800Z,3.00
2019-05-10T10:03:51.168Z,3.60
2019-05-10T10:04:58.625Z,5.37
2019-05-10T10:06:10.744Z,5.90
2019-05-10T10:07:14.186Z,3.40
2019-05-10T10:08:20.500Z,3.20
2019-05-10T10:09:33.802Z,4.67
2019-05-10T10:10:32.649Z,3.35
2019-05-10T10:11:37.301Z,3.58
2019-05-10T10:12:43.008Z,2.58
2019-05-10T10:13:58.586Z,5.15
2019-05-10T10:14:55.759Z,4.20
2019-05-10T10:16:03.993Z,2.80
2019-05-10T10:17:08.258Z,3.25
2019-05-10T10:18:21.231Z,3.15
2019-05-10T10:19:24.367Z,3.62
2019-05-10T10:20:29.764Z,5.85
2019-05-10T10:21:35.537Z,3.80
2019-05-10T10:22:43.521Z,2.87
2019-05-10T10:23:46.881Z,3.15
2019-05-10T10:24:54.933Z,4.28
2019-05-10T10:25:59.520Z,3.37
2019-05-10T10:27:07.449Z,4.00
2019-05-10T10:28:16.962Z,3.95
2019-05-10T10:29:20.989Z,3.95
2019-05-10T10:30:27.563Z,4.28
2019-05-10T10:31:33.489Z,3.37
2019-05-10T10:32:38.641Z,6.08
2019-05-10T10:33:48.294Z,5.15
2019-05-10T10:34:54.054Z,4.22
2019-05-10T10:36:04.367Z,5.10
2019-05-10T10:37:02.131Z,4.90
2019-05-10T10:38:08.378Z,4.15
2019-05-10T10:39:17.037Z,5.83
2019-05-10T10:40:22.211Z,3.80
2019-05-10T10:41:31.549Z,4.83
2019-05-10T10:42:33.008Z,5.25
2019-05-10T10:43:38.583Z,5.17
2019-05-10T10:44:43.363Z,5.67
2019-05-10T10:45:47.937Z,3.58
2019-05-10T10:46:52.441Z,4.25
2019-05-10T10:47:57.430Z,3.20
2019-05-10T10:49:05.542Z,3.50
2019-05-10T10:50:13.666Z,4.35
2019-05-10T10:51:26.544Z,4.60
2019-05-10T10:52:28.930Z,3.80
2019-05-10T10:53:33.493Z,4.83
2019-05-10T10:54:39.932Z,4.08
2019-05-10T10:55:46.109Z,3.45
2019-05-10T10:56:51.049Z,3.67
2019-05-10T10:57:57.659Z,5.80
2019-05-10T10:59:02.034Z,4.55
2019-05-10T11:00:07.782Z,4.03
2019-05-10T11:01:21.466Z,3.42
2019-05-10T11:02:33.207Z,4.97
2019-05-10T11:03:30.176Z,4.03
2019-05-10T11:04:33.355Z,7.00
2019-05-10T11:05:37.874Z,3.25
2019-05-10T11:06:42.497Z,4.67
2019-05-10T11:07:47.786Z,3.50
2019-05-10T11:08:52.701Z,3.58
2019-05-10T11:10:08.105Z,4.03
2019-05-10T11:11:03.496Z,3.75
2019-05-10T11:12:08.162Z,7.42
2019-05-10T11:13:20.458Z,4.72
2019-05-10T11:14:21.528Z,5.20
2019-05-10T11:15:28.205Z,8.50
2019-05-10T11:16:32.385Z,6.12
2019-05-10T11:17:36.945Z,5.95
2019-05-10T11:18:42.623Z,5.37
2019-05-10T11:19:48.303Z,4.72
2019-05-10T11:20:54.033Z,5.05
2019-05-10T11:22:02.189Z,4.30
2019-05-10T11:23:05.304Z,6.65
2019-05-10T11:24:17.899Z,6.87
2019-05-10T11:25:17.084Z,4.20
2019-05-10T11:26:21.853Z,4.35
2019-05-10T11:27:26.714Z,4.47
2019-05-10T11:28:38.887Z,5.05
2019-05-10T11:29:41.559Z,7.22
2019-05-10T11:30:45.337Z,4.10
2019-05-10T11:32:10.731Z,4.35
2019-05-10T11:32:56.445Z,4.58
2019-05-10T11:34:01.666Z,3.80
2019-05-10T11:35:06.606Z,5.95
2019-05-10T11:36:11.572Z,4.87
2019-05-10T11:37:18.425Z,4.65
2019-05-10T11:38:24.183Z,5.17
2019-05-10T11:39:33.184Z,6.12
2019-05-10T11:40:35.471Z,5.17
2019-05-10T11:41:40.150Z,4.17
2019-05-10T11:42:47.391Z,6.40
2019-05-10T11:43:51.088Z,5.53
2019-05-10T11:44:55.697Z,4.08
2019-05-10T11:46:00.441Z,4.83
2019-05-10T11:47:20.155Z,4.25
2019-05-10T11:48:13.288Z,4.67
2019-05-10T11:49:22.272Z,5.25
2019-05-10T11:50:34.362Z,3.85
2019-05-10T11:51:34.465Z,4.78
2019-05-10T11:52:41.910Z,5.22
2019-05-10T11:53:49.052Z,3.90
2019-05-10T11:54:52.944Z,4.45
2019-05-10T11:55:57.795Z,3.90
2019-05-10T11:57:06.524Z,3.65
2019-05-10T11:58:12.993Z,4.33
2019-05-10T11:59:18.029Z,4.00
2019-05-10T12:00:31.960Z,4.65
2019-05-10T12:01:33.078Z,3.27
2019-05-10T12:02:43.439Z,3.52
2019-05-10T12:03:44.105Z,3.10
2019-05-10T12:04:52.439Z,3.27
2019-05-10T12:06:04.700Z,3.37
2019-05-10T12:07:06.084Z,4.50
2019-05-10T12:08:12.931Z,3.50
2019-05-10T12:09:21.317Z,3.85
2019-05-10T12:10:27.006Z,6.35
2019-05-10T12:11:33.824Z,4.25
2019-05-10T12:12:54.050Z,4.03
2019-05-10T12:13:44.153Z,6.60
2019-05-10T12:14:48.807Z,3.00
2019-05-10T12:15:53.354Z,3.45
2019-05-10T12:16:57.967Z,5.47
2019-05-10T12:18:04.934Z,3.05
2019-05-10T12:19:16.976Z,4.60
2019-05-10T12:20:26.828Z,4.67
2019-05-10T12:21:27.323Z,3.05
2019-05-10T12:22:38.143Z,4.97
2019-05-10T12:23:50.018Z,4.75
2019-05-10T12:25:11.451Z,4.78
2019-05-10T12:27:08.230Z,5.58
2019-05-10T12:27:18.530Z,6.53
2019-05-10T12:28:06.717Z,4.85
2019-05-10T12:29:16.929Z,4.10
2019-05-10T12:30:24.562Z,4.47
2019-05-10T12:31:34.728Z,4.17
2019-05-10T12:32:54.985Z,3.67
2019-05-10T12:33:45.599Z,5.37
2019-05-10T12:34:56.313Z,5.97
2019-05-10T12:35:58.680Z,5.83
2019-05-10T12:37:08.276Z,6.30
2019-05-10T12:38:14.978Z,5.45
2019-05-10T12:39:21.544Z,3.55
2019-05-10T12:40:31.473Z,6.20
2019-05-10T12:41:39.682Z,3.37
2019-05-10T12:42:46.534Z,4.12
2019-05-10T12:43:51.618Z,3.80
2019-05-10T12:44:56.074Z,3.17
2019-05-10T12:46:00.840Z,3.65
2019-05-10T12:47:05.542Z,3.85
2019-05-10T12:48:10.406Z,6.33
2019-05-10T12:49:17.866Z,3.22
2019-05-10T12:50:24.242Z,3.80
2019-05-10T12:51:31.257Z,4.67
2019-05-10T12:52:35.820Z,3.10
2019-05-10T12:53:44.629Z,3.42
2019-05-10T12:54:46.990Z,3.98
2019-05-10T12:55:51.630Z,4.08
2019-05-10T12:56:56.243Z,3.15
2019-05-10T12:58:01.353Z,4.95
2019-05-10T12:59:06.061Z,5.20
2019-05-10T13:00:13.282Z,4.35
2019-05-10T13:01:25.529Z,2.70
2019-05-10T13:02:26.681Z,3.42
2019-05-10T13:03:33.684Z,4.17
2019-05-10T13:04:40.948Z,5.20
2019-05-10T13:05:52.448Z,3.45
2019-05-10T13:06:50.869Z,3.05
2019-05-10T13:07:55.402Z,7.25
2019-05-10T13:09:00.001Z,5.28
2019-05-10T13:10:07.562Z,4.15
2019-05-10T13:11:18.893Z,3.70
2019-05-10T13:12:21.319Z,3.58
2019-05-10T13:13:29.826Z,5.17
2019-05-10T13:14:32.470Z,4.33
2019-05-10T13:15:38.637Z,3.85
2019-05-10T13:16:46.147Z,3.25
2019-05-10T13:17:53.125Z,5.83
2019-05-10T13:18:57.442Z,5.03
2019-05-10T13:20:02.483Z,4.85
2019-05-10T13:21:07.957Z,3.92
2019-05-10T13:22:37.763Z,3.95
2019-05-10T13:23:42.490Z,4.30
2019-05-10T13:24:47.213Z,5.03
2019-05-10T13:26:04.071Z,6.40
2019-05-10T13:27:08.741Z,3.92
2019-05-10T13:28:19.670Z,4.33
2019-05-10T13:29:30.847Z,5.20
2019-05-10T13:30:35.948Z,4.97
2019-05-10T13:31:42.683Z,5.83
2019-05-10T13:32:47.165Z,3.67
2019-05-10T13:33:51.959Z,3.87
2019-05-10T13:34:56.689Z,4.20
2019-05-10T13:36:01.480Z,4.33
2019-05-10T13:37:06.094Z,5.42
2019-05-10T13:38:12.657Z,6.17
2019-05-10T13:39:25.714Z,4.65
2019-05-10T13:40:39.134Z,3.83
2019-05-10T13:41:41.452Z,7.87
2019-05-10T13:42:46.636Z,5.00
2019-05-10T13:43:51.374Z,4.95
2019-05-10T13:44:56.034Z,4.25
2019-05-10T13:46:00.690Z,3.42
2019-05-10T13:47:05.398Z,5.17
2019-05-10T13:48:10.242Z,7.85
2019-05-10T13:49:15.803Z,3.62
2019-05-10T13:50:22.412Z,5.25
2019-05-10T13:51:28.668Z,4.03
2019-05-10T13:52:40.804Z,4.03
2019-05-10T13:53:41.490Z,3.12
2019-05-10T13:54:46.182Z,3.98
2019-05-10T13:55:51.148Z,4.03
2019-05-10T13:56:55.959Z,3.33
2019-05-10T13:58:02.385Z,3.70
2019-05-10T13:59:15.364Z,3.50
2019-05-10T14:00:16.835Z,4.03
2019-05-10T14:01:23.868Z,3.27
2019-05-10T14:02:34.735Z,4.17
2019-05-10T14:03:44.498Z,4.42
2019-05-10T14:04:50.516Z,3.75
2019-05-10T14:05:55.213Z,4.58
2019-05-10T14:06:59.934Z,3.15
2019-05-10T14:08:04.606Z,5.67
2019-05-10T14:09:28.287Z,4.90
2019-05-10T14:10:32.966Z,4.87
2019-05-10T14:11:40.398Z,6.72
2019-05-10T14:12:45.086Z,5.17
2019-05-10T14:13:49.835Z,3.70
2019-05-10T14:15:02.612Z,4.53
2019-05-10T14:16:01.784Z,5.00
2019-05-10T14:17:06.574Z,4.87
2019-05-10T14:18:11.679Z,5.22
2019-05-10T14:19:22.821Z,5.78
2019-05-10T14:20:27.751Z,4.72
2019-05-10T14:21:29.601Z,5.60
2019-05-10T14:22:34.371Z,7.00
2019-05-10T14:23:39.417Z,3.72
2019-05-10T14:24:52.170Z,5.83